Time;durP1;ratioP1;P1;durP2;ratioP2;P2;SDS_P1;SDS_P2;PMS_P1;PMS_P2;Temp;Humidity;BMP_temperature;BMP_pressure;BME280_temperature;BME280_humidity;BME280_pressure;Samples;Min_cycle;Max_cycle;Signal;HPM_P1;HPM_P2
2023/08/22 00:01:38;;;;;;;8.15;5.63;;;;;;;;;;4950573;29;20040;-92
2023/08/22 00:04:06;;;;;;;7.53;5.40;;;;;;;;;;4939791;29;20032;-92
2023/08/22 00:06:33;;;;;;;9.15;5.93;;;;;;;;;;4958343;28;20031;-92
2023/08/22 00:09:04;;;;;;;9.00;4.53;;;;;;;;;;4960167;28;20036;-93
2023/08/22 00:11:32;;;;;;;7.25;5.60;;;;;;;;;;4936361;29;20032;-92
2023/08/22 00:14:02;;;;;;;10.25;5.15;;;;;;;;;;4952152;29;20028;-92
2023/08/22 00:16:30;;;;;;;6.15;5.55;;;;;;;;;;4938327;29;20048;-92
2023/08/22 00:18:58;;;;;;;7.72;6.13;;;;;;;;;;4939774;29;20034;-93
2023/08/22 00:21:26;;;;;;;6.53;4.80;;;;;;;;;;4944417;29;20040;-94
2023/08/22 00:23:55;;;;;;;7.43;4.53;;;;;;;;;;4931035;29;20032;-93
2023/08/22 00:26:25;;;;;;;8.10;4.70;;;;;;;;;;4942695;29;20048;-93
2023/08/22 00:28:53;;;;;;;7.57;4.68;;;;;;;;;;4939738;29;20042;-93
2023/08/22 00:31:21;;;;;;;6.05;5.47;;;;;;;;;;4953917;29;20041;-93
2023/08/22 00:33:49;;;;;;;9.45;4.88;;;;;;;;;;4938426;29;20050;-93
2023/08/22 00:36:17;;;;;;;7.93;5.13;;;;;;;;;;4942073;29;20123;-93
2023/08/22 00:38:44;;;;;;;6.88;5.70;;;;;;;;;;4923326;29;20046;-93
2023/08/22 00:41:12;;;;;;;5.35;4.85;;;;;;;;;;4939478;29;20049;-93
2023/08/22 00:43:42;;;;;;;7.35;4.30;;;;;;;;;;4954065;28;20023;-93
2023/08/22 00:46:10;;;;;;;4.78;4.07;;;;;;;;;;4915175;29;20060;-93
2023/08/22 00:48:37;;;;;;;6.50;4.93;;;;;;;;;;4956983;28;20031;-93
2023/08/22 00:51:05;;;;;;;6.05;4.75;;;;;;;;;;4947478;29;20044;-93
2023/08/22 00:53:36;;;;;;;10.25;4.15;;;;;;;;;;4941672;29;20044;-93
2023/08/22 00:56:06;;;;;;;9.05;4.90;;;;;;;;;;4938640;29;20042;-93
2023/08/22 00:58:33;;;;;;;8.00;4.43;;;;;;;;;;4932928;29;20062;-93
2023/08/22 01:01:04;;;;;;;12.00;5.80;;;;;;;;;;4935185;29;20044;-93
2023/08/22 01:03:32;;;;;;;7.00;5.05;;;;;;;;;;4945848;29;20036;-93
2023/08/22 01:06:04;;;;;;;6.63;4.68;;;;;;;;;;4940854;29;20041;-93
2023/08/22 01:08:39;;;;;;;9.07;5.28;;;;;;;;;;4925597;29;20062;-93
2023/08/22 01:11:13;;;;;;;8.77;5.47;;;;;;;;;;4954412;29;20044;-93
2023/08/22 01:13:42;;;;;;;7.70;4.47;;;;;;;;;;4937445;29;20038;-92
2023/08/22 01:16:13;;;;;;;9.55;4.63;;;;;;;;;;4948847;28;20100;-93
2023/08/22 01:18:42;;;;;;;6.10;5.40;;;;;;;;;;4950083;29;20032;-93
2023/08/22 01:21:18;;;;;;;5.20;4.20;;;;;;;;;;4942277;29;20028;-93
2023/08/22 01:23:48;;;;;;;6.40;5.13;;;;;;;;;;4949665;28;20028;-92
2023/08/22 01:26:16;;;;;;;16.15;5.80;;;;;;;;;;4953243;29;20045;-93
2023/08/22 01:28:47;;;;;;;6.05;5.45;;;;;;;;;;4948737;29;20273;-92
2023/08/22 01:31:19;;;;;;;10.40;5.72;;;;;;;;;;4944643;29;20040;-93
2023/08/22 01:33:51;;;;;;;7.22;6.00;;;;;;;;;;4938406;29;20031;-93
2023/08/22 01:36:20;;;;;;;6.43;4.35;;;;;;;;;;4944553;29;20050;-93
2023/08/22 01:38:50;;;;;;;12.77;6.25;;;;;;;;;;4941814;28;20037;-94
2023/08/22 01:41:21;;;;;;;;;;;;;;;;;;4954167;29;20320;-94
2023/08/22 01:43:53;;;;;;;7.15;6.32;;;;;;;;;;4961190;29;19911;-94
2023/08/22 01:46:21;;;;;;;11.10;6.43;;;;;;;;;;4937204;29;20039;-94
2023/08/22 01:48:52;;;;;;;6.30;4.82;;;;;;;;;;4942936;29;20122;-92
2023/08/22 01:51:21;;;;;;;5.85;5.25;;;;;;;;;;4942598;28;20049;-92
2023/08/22 01:53:51;;;;;;;5.28;4.75;;;;;;;;;;4943153;29;20046;-92
2023/08/22 01:56:19;;;;;;;8.00;5.47;;;;;;;;;;4941252;29;20026;-92
2023/08/22 01:58:47;;;;;;;7.43;5.30;;;;;;;;;;4944112;29;20050;-92
2023/08/22 02:01:15;;;;;;;5.18;4.68;;;;;;;;;;4943110;29;20047;-92
2023/08/22 02:03:46;;;;;;;6.78;4.93;;;;;;;;;;4947664;29;20034;-92
2023/08/22 02:06:14;;;;;;;5.45;4.90;;;;;;;;;;4942648;29;20044;-92
2023/08/22 02:08:41;;;;;;;5.75;4.45;;;;;;;;;;4926554;29;20133;-92
2023/08/22 02:11:11;;;;;;;10.52;5.05;;;;;;;;;;4941747;29;20054;-92
2023/08/22 02:13:39;;;;;;;5.78;4.90;;;;;;;;;;4943389;29;20035;-93
2023/08/22 02:16:06;;;;;;;6.00;5.30;;;;;;;;;;4959145;28;20036;-92
2023/08/22 02:18:37;;;;;;;6.20;5.55;;;;;;;;;;4960250;28;20065;-91
2023/08/22 02:21:05;;;;;;;5.88;5.28;;;;;;;;;;4927737;29;20038;-93
2023/08/22 02:23:33;;;;;;;8.65;4.93;;;;;;;;;;4955761;29;20036;-92
2023/08/22 02:26:01;;;;;;;9.18;5.28;;;;;;;;;;4928461;29;20062;-93
2023/08/22 02:28:30;;;;;;;12.77;6.13;;;;;;;;;;4958143;28;20035;-92
2023/08/22 02:30:59;;;;;;;7.40;5.57;;;;;;;;;;4943602;29;20026;-93
2023/08/22 02:33:29;;;;;;;7.90;4.75;;;;;;;;;;4935575;28;20038;-94
2023/08/22 02:35:57;;;;;;;6.40;5.10;;;;;;;;;;4957526;29;20046;-91
2023/08/22 02:38:25;;;;;;;7.15;5.70;;;;;;;;;;4941423;29;20052;-92
2023/08/22 02:40:55;;;;;;;6.80;5.10;;;;;;;;;;4942650;29;20028;-92
2023/08/22 02:43:23;;;;;;;5.50;4.70;;;;;;;;;;4943855;29;20036;-92
2023/08/22 02:45:53;;;;;;;6.97;6.07;;;;;;;;;;4943971;29;20035;-93
2023/08/22 02:48:23;;;;;;;7.97;5.20;;;;;;;;;;4939441;29;20038;-93
2023/08/22 02:50:52;;;;;;;8.50;5.80;;;;;;;;;;4955576;28;20032;-91
2023/08/22 02:53:20;;;;;;;6.47;5.15;;;;;;;;;;4940691;28;20039;-92
2023/08/22 02:55:48;;;;;;;5.72;5.20;;;;;;;;;;4927965;29;20038;-92
2023/08/22 02:58:17;;;;;;;7.25;4.53;;;;;;;;;;4938530;29;20040;-92
2023/08/22 03:00:48;;;;;;;8.30;6.13;;;;;;;;;;4939101;29;20036;-92
2023/08/22 03:03:18;;;;;;;7.90;5.80;;;;;;;;;;4939272;29;20047;-93
2023/08/22 03:05:48;;;;;;;7.53;5.30;;;;;;;;;;4955133;29;20028;-92
2023/08/22 03:08:16;;;;;;;6.68;5.72;;;;;;;;;;4943728;29;20046;-93
2023/08/22 03:10:46;;;;;;;6.80;4.80;;;;;;;;;;4950594;29;20048;-92
2023/08/22 03:13:14;;;;;;;7.85;6.68;;;;;;;;;;4958304;29;20031;-93
2023/08/22 03:15:45;;;;;;;7.22;4.95;;;;;;;;;;4943669;29;20034;-93
2023/08/22 03:18:13;;;;;;;7.05;4.97;;;;;;;;;;4958328;29;20031;-93
2023/08/22 03:20:44;;;;;;;5.80;5.20;;;;;;;;;;4936074;29;20035;-94
2023/08/22 03:23:12;;;;;;;10.68;5.80;;;;;;;;;;4959237;29;20032;-94
2023/08/22 03:25:40;;;;;;;7.57;5.10;;;;;;;;;;4958437;29;20043;-94
2023/08/22 03:28:08;;;;;;;9.70;5.07;;;;;;;;;;4956454;29;20039;-93
2023/08/22 03:30:36;;;;;;;6.05;5.15;;;;;;;;;;4944050;29;20052;-93
2023/08/22 03:33:04;;;;;;;6.60;4.63;;;;;;;;;;4955477;29;20036;-94
2023/08/22 03:35:35;;;;;;;11.73;6.53;;;;;;;;;;4943783;29;20040;-94
2023/08/22 03:38:04;;;;;;;5.75;5.22;;;;;;;;;;4948073;29;20036;-94
2023/08/22 03:40:32;;;;;;;6.13;5.47;;;;;;;;;;4940766;29;20035;-93
2023/08/22 03:43:00;;;;;;;10.50;5.90;;;;;;;;;;4971498;28;20038;-94
2023/08/22 03:45:30;;;;;;;5.80;4.72;;;;;;;;;;4957187;29;20093;-94
2023/08/22 03:48:03;;;;;;;8.85;5.53;;;;;;;;;;4967018;28;20026;-94
2023/08/22 03:50:34;;;;;;;9.02;5.35;;;;;;;;;;4947330;29;20052;-94
2023/08/22 03:53:01;;;;;;;6.13;4.63;;;;;;;;;;4925734;29;20043;-92
2023/08/22 03:55:33;;;;;;;6.20;4.93;;;;;;;;;;4952918;29;20035;-92
2023/08/22 03:58:02;;;;;;;5.63;4.75;;;;;;;;;;4936927;29;20514;-94
2023/08/22 04:00:32;;;;;;;6.00;5.30;;;;;;;;;;4922266;29;20062;-94
2023/08/22 04:03:00;;;;;;;10.68;5.22;;;;;;;;;;4921363;29;20541;-93
2023/08/22 04:05:28;;;;;;;6.97;4.85;;;;;;;;;;4938207;29;20063;-93
2023/08/22 04:07:56;;;;;;;6.07;5.00;;;;;;;;;;4921091;29;20055;-92
2023/08/22 04:10:26;;;;;;;6.90;4.30;;;;;;;;;;4951424;29;20055;-93
2023/08/22 04:12:55;;;;;;;7.38;5.22;;;;;;;;;;4907591;29;20048;-93
2023/08/22 04:15:23;;;;;;;9.10;5.70;;;;;;;;;;4940939;29;20047;-94
2023/08/22 04:17:51;;;;;;;6.57;4.47;;;;;;;;;;4936068;29;20058;-95
2023/08/22 04:20:19;;;;;;;15.63;6.03;;;;;;;;;;4921551;29;20059;-95
2023/08/22 04:22:47;;;;;;;7.28;4.72;;;;;;;;;;4936521;29;20056;-94
2023/08/22 04:25:15;;;;;;;6.20;5.57;;;;;;;;;;4923711;29;20044;-95
2023/08/22 04:27:43;;;;;;;5.47;4.80;;;;;;;;;;4907821;29;20051;-95
2023/08/22 04:30:13;;;;;;;11.80;5.60;;;;;;;;;;4907580;29;20051;-95
2023/08/22 04:32:42;;;;;;;6.50;4.88;;;;;;;;;;4930862;29;20070;-94
2023/08/22 04:35:20;;;;;;;9.30;4.75;;;;;;;;;;4922310;29;20054;-93
2023/08/22 04:37:54;;;;;;;6.75;5.93;;;;;;;;;;4924612;29;20055;-94
2023/08/22 04:40:29;;;;;;;5.47;4.10;;;;;;;;;;4939579;29;20041;-92
2023/08/22 04:43:05;;;;;;;6.05;4.32;;;;;;;;;;4926266;29;20046;-94
2023/08/22 04:45:37;;;;;;;8.63;5.30;;;;;;;;;;4956744;29;20044;-94
2023/08/22 04:48:08;;;;;;;6.45;5.35;;;;;;;;;;4924538;29;20061;-94
2023/08/22 04:50:36;;;;;;;6.15;5.05;;;;;;;;;;4962322;28;20068;-94
2023/08/22 04:53:08;;;;;;;7.10;4.85;;;;;;;;;;4921565;29;20031;-92
2023/08/22 04:55:35;;;;;;;7.70;6.35;;;;;;;;;;4945107;29;20052;-93
2023/08/22 04:58:03;;;;;;;5.50;5.00;;;;;;;;;;4925577;29;20056;-93
2023/08/22 05:00:31;;;;;;;6.40;5.40;;;;;;;;;;4938936;29;20038;-92
2023/08/22 05:03:03;;;;;;;5.60;5.10;;;;;;;;;;4965748;28;20042;-92
2023/08/22 05:05:31;;;;;;;7.57;5.32;;;;;;;;;;4956523;29;20041;-92
2023/08/22 05:08:04;;;;;;;5.53;4.93;;;;;;;;;;4930262;29;20035;-93
2023/08/22 05:10:31;;;;;;;8.50;5.40;;;;;;;;;;4925297;29;20054;-92
2023/08/22 05:12:59;;;;;;;9.40;5.20;;;;;;;;;;4956498;28;20050;-93
2023/08/22 05:15:29;;;;;;;7.85;4.90;;;;;;;;;;4939686;29;21163;-92
2023/08/22 05:17:58;;;;;;;7.80;5.40;;;;;;;;;;4943516;29;21544;-92
2023/08/22 05:20:26;;;;;;;7.88;5.10;;;;;;;;;;4950129;29;20038;-93
2023/08/22 05:22:54;;;;;;;11.15;5.32;;;;;;;;;;4937840;29;20040;-92
2023/08/22 05:25:25;;;;;;;6.68;5.30;;;;;;;;;;4940076;29;20091;-92
2023/08/22 05:27:57;;;;;;;12.65;5.63;;;;;;;;;;4949614;29;20040;-93
2023/08/22 05:30:30;;;;;;;4.88;4.30;;;;;;;;;;4938895;29;20032;-93
2023/08/22 05:32:58;;;;;;;4.65;4.15;;;;;;;;;;4939951;29;20048;-92
2023/08/22 05:35:27;;;;;;;7.43;3.97;;;;;;;;;;4924982;29;20046;-93
2023/08/22 05:37:54;;;;;;;5.10;4.50;;;;;;;;;;4940611;29;20054;-93
2023/08/22 05:40:27;;;;;;;5.90;3.83;;;;;;;;;;4951999;28;20034;-93
2023/08/22 05:42:54;;;;;;;10.23;4.10;;;;;;;;;;4943155;29;20039;-92
2023/08/22 05:45:22;;;;;;;12.60;3.53;;;;;;;;;;4930737;29;20036;-93
2023/08/22 05:47:51;;;;;;;6.18;4.13;;;;;;;;;;4956716;28;20048;-93
2023/08/22 05:50:19;;;;;;;5.03;4.18;;;;;;;;;;4925703;29;20042;-93
2023/08/22 05:52:51;;;;;;;5.53;3.83;;;;;;;;;;4940992;29;20058;-94
2023/08/22 05:55:19;;;;;;;4.75;4.00;;;;;;;;;;4941510;29;20027;-93
2023/08/22 05:57:50;;;;;;;5.55;3.20;;;;;;;;;;4933934;29;20028;-93
2023/08/22 06:00:18;;;;;;;4.55;4.10;;;;;;;;;;4946483;29;20043;-94
2023/08/22 06:02:50;;;;;;;8.50;4.53;;;;;;;;;;4963110;28;20039;-93
2023/08/22 06:05:18;;;;;;;4.45;3.67;;;;;;;;;;4969891;28;20048;-92
2023/08/22 06:07:46;;;;;;;6.18;3.60;;;;;;;;;;4941312;29;20042;-93
2023/08/22 06:10:15;;;;;;;12.82;5.25;;;;;;;;;;4969255;28;20046;-94
2023/08/22 06:12:43;;;;;;;5.10;4.20;;;;;;;;;;4940956;29;20038;-93
2023/08/22 06:15:13;;;;;;;5.80;3.70;;;;;;;;;;4931626;29;20046;-93
2023/08/22 06:17:40;;;;;;;4.60;4.05;;;;;;;;;;4951022;29;20050;-94
2023/08/22 06:20:09;;;;;;;8.63;4.40;;;;;;;;;;4944568;29;20031;-92
2023/08/22 06:22:36;;;;;;;4.85;4.38;;;;;;;;;;4959470;29;21441;-92
2023/08/22 06:25:08;;;;;;;4.65;3.80;;;;;;;;;;4925648;29;20043;-93
2023/08/22 06:27:40;;;;;;;4.68;3.78;;;;;;;;;;4941739;29;20030;-93
2023/08/22 06:30:09;;;;;;;10.07;4.15;;;;;;;;;;4954995;28;20047;-93
2023/08/22 06:32:37;;;;;;;10.48;4.22;;;;;;;;;;4951711;29;20032;-92
2023/08/22 06:35:07;;;;;;;5.32;3.88;;;;;;;;;;4942895;29;20050;-93
2023/08/22 06:37:36;;;;;;;5.30;3.35;;;;;;;;;;4943679;29;20062;-93
2023/08/22 06:40:05;;;;;;;5.72;3.88;;;;;;;;;;4933442;29;20035;-93
2023/08/22 06:42:34;;;;;;;6.60;4.03;;;;;;;;;;4927294;29;20043;-92
2023/08/22 06:45:09;;;;;;;4.10;3.35;;;;;;;;;;4960337;28;20046;-93
2023/08/22 06:47:39;;;;;;;9.05;3.97;;;;;;;;;;4939774;29;20036;-93
2023/08/22 06:50:09;;;;;;;12.65;4.57;;;;;;;;;;4940921;29;20016;-93
2023/08/22 06:52:37;;;;;;;5.25;3.70;;;;;;;;;;4953205;29;20046;-92
2023/08/22 06:55:05;;;;;;;7.15;4.32;;;;;;;;;;4953455;29;20032;-93
2023/08/22 06:57:32;;;;;;;5.65;4.05;;;;;;;;;;4935842;29;20054;-94
2023/08/22 07:00:07;;;;;;;6.80;5.10;;;;;;;;;;4951987;29;20278;-94
2023/08/22 07:02:37;;;;;;;7.32;5.55;;;;;;;;;;4956788;29;20039;-93
2023/08/22 07:05:05;;;;;;;7.65;5.55;;;;;;;;;;4959310;28;20036;-94
2023/08/22 07:07:32;;;;;;;5.47;4.97;;;;;;;;;;4946254;29;20024;-93
2023/08/22 07:10:03;;;;;;;4.90;4.47;;;;;;;;;;4943032;28;20044;-93
2023/08/22 07:12:30;;;;;;;5.75;5.15;;;;;;;;;;4956055;28;20032;-93
2023/08/22 07:14:58;;;;;;;5.85;5.25;;;;;;;;;;4951567;29;20052;-93
2023/08/22 07:17:25;;;;;;;5.43;4.47;;;;;;;;;;4946112;29;20034;-93
2023/08/22 07:19:56;;;;;;;5.25;4.78;;;;;;;;;;4951336;29;20051;-93
2023/08/22 07:22:24;;;;;;;8.68;5.63;;;;;;;;;;4960427;28;20031;-93
2023/08/22 07:24:51;;;;;;;5.95;5.43;;;;;;;;;;4927046;29;20529;-93
2023/08/22 07:27:22;;;;;;;4.95;4.20;;;;;;;;;;4943100;29;20039;-93
2023/08/22 07:29:50;;;;;;;5.47;4.63;;;;;;;;;;4938514;29;20040;-93
2023/08/22 07:32:18;;;;;;;5.53;4.40;;;;;;;;;;4955772;28;20031;-94
2023/08/22 07:34:46;;;;;;;4.82;4.38;;;;;;;;;;4936717;29;20340;-94
2023/08/22 07:37:17;;;;;;;5.35;4.50;;;;;;;;;;4957142;29;20036;-92
2023/08/22 07:39:45;;;;;;;4.75;4.35;;;;;;;;;;4952583;29;20057;-93
2023/08/22 07:42:12;;;;;;;8.60;5.00;;;;;;;;;;4948942;29;20040;-93
2023/08/22 07:44:40;;;;;;;5.80;5.25;;;;;;;;;;4948693;29;20038;-91
2023/08/22 07:47:10;;;;;;;5.80;4.60;;;;;;;;;;4956897;29;20031;-93
2023/08/22 07:49:37;;;;;;;5.95;5.05;;;;;;;;;;4953778;29;20044;-94
2023/08/22 07:52:05;;;;;;;4.80;4.30;;;;;;;;;;4953737;29;20030;-93
2023/08/22 07:54:36;;;;;;;5.35;4.82;;;;;;;;;;4938000;29;20043;-93
2023/08/22 07:57:07;;;;;;;6.38;5.32;;;;;;;;;;4955699;29;20028;-93
2023/08/22 07:59:34;;;;;;;8.65;5.50;;;;;;;;;;4956804;28;20019;-94
2023/08/22 08:02:02;;;;;;;7.68;5.30;;;;;;;;;;4940413;29;20035;-93
2023/08/22 08:04:31;;;;;;;6.10;5.53;;;;;;;;;;4938397;29;20040;-94
2023/08/22 08:06:59;;;;;;;11.52;5.47;;;;;;;;;;4954397;29;20081;-92
2023/08/22 08:09:27;;;;;;;12.70;5.85;;;;;;;;;;4955867;29;20042;-93
2023/08/22 08:12:06;;;;;;;7.10;5.65;;;;;;;;;;4942391;29;20028;-93
2023/08/22 08:14:38;;;;;;;6.00;5.50;;;;;;;;;;4959337;28;20062;-93
2023/08/22 08:17:08;;;;;;;7.32;6.38;;;;;;;;;;4923194;29;20035;-93
2023/08/22 08:19:36;;;;;;;9.80;5.60;;;;;;;;;;4946852;29;20040;-92
2023/08/22 08:22:04;;;;;;;9.43;5.80;;;;;;;;;;4956871;29;20048;-94
2023/08/22 08:24:31;;;;;;;7.50;6.25;;;;;;;;;;4946981;29;20047;-93
2023/08/22 08:26:59;;;;;;;6.97;5.00;;;;;;;;;;4940776;29;20027;-92
2023/08/22 08:29:39;;;;;;;6.75;5.38;;;;;;;;;;4956663;29;20036;-92
2023/08/22 08:32:09;;;;;;;6.22;4.78;;;;;;;;;;4956925;28;20050;-93
2023/08/22 08:34:39;;;;;;;4.78;4.38;;;;;;;;;;4958877;29;20069;-93
2023/08/22 08:37:06;;;;;;;4.22;3.83;;;;;;;;;;4941424;29;20027;-91
2023/08/22 08:39:34;;;;;;;4.05;3.53;;;;;;;;;;4957938;28;20028;-93
2023/08/22 08:42:04;;;;;;;7.05;4.03;;;;;;;;;;4950424;29;20032;-92
2023/08/22 08:44:35;;;;;;;4.63;4.22;;;;;;;;;;4936037;29;20063;-93
2023/08/22 08:47:03;;;;;;;5.20;4.70;;;;;;;;;;4955989;29;20047;-93
2023/08/22 08:49:35;;;;;;;3.75;3.42;;;;;;;;;;4944431;29;20028;-93
2023/08/22 08:52:03;;;;;;;5.40;4.82;;;;;;;;;;4956659;29;20042;-93
2023/08/22 08:54:33;;;;;;;8.45;4.30;;;;;;;;;;4947500;29;20224;-93
2023/08/22 08:57:00;;;;;;;9.02;5.00;;;;;;;;;;4951329;29;20035;-93
2023/08/22 08:59:28;;;;;;;5.85;5.32;;;;;;;;;;4952567;29;20039;-92
2023/08/22 09:01:57;;;;;;;7.10;4.10;;;;;;;;;;4940349;28;20039;-94
2023/08/22 09:04:25;;;;;;;4.68;4.28;;;;;;;;;;4941644;29;20051;-92
2023/08/22 09:06:52;;;;;;;5.10;3.67;;;;;;;;;;4955950;29;20050;-93
2023/08/22 09:09:20;;;;;;;3.80;3.17;;;;;;;;;;4945591;28;20073;-92
2023/08/22 09:11:50;;;;;;;4.30;3.53;;;;;;;;;;4942450;29;20046;-93
2023/08/22 09:14:22;;;;;;;4.72;3.25;;;;;;;;;;4939716;29;20036;-93
2023/08/22 09:16:50;;;;;;;5.43;3.40;;;;;;;;;;4949958;29;20040;-94
2023/08/22 09:19:18;;;;;;;11.63;3.53;;;;;;;;;;4946449;29;20047;-92
2023/08/22 09:21:58;;;;;;;4.07;3.67;;;;;;;;;;4948152;29;20039;-92
2023/08/22 09:24:26;;;;;;;4.43;3.45;;;;;;;;;;4943091;29;20044;-92
2023/08/22 09:26:54;;;;;;;8.25;4.00;;;;;;;;;;4946286;29;20047;-94
2023/08/22 09:29:29;;;;;;;4.75;3.97;;;;;;;;;;4938157;29;20052;-92
2023/08/22 09:32:04;;;;;;;5.85;4.15;;;;;;;;;;4938845;29;20024;-94
2023/08/22 09:34:34;;;;;;;4.95;3.95;;;;;;;;;;4951208;29;20054;-92
2023/08/22 09:37:01;;;;;;;13.80;3.45;;;;;;;;;;4946404;29;20039;-93
2023/08/22 09:39:30;;;;;;;6.47;4.50;;;;;;;;;;4938561;29;20038;-94
2023/08/22 09:41:58;;;;;;;5.85;4.10;;;;;;;;;;4937192;29;20039;-93
2023/08/22 09:44:27;;;;;;;3.85;3.42;;;;;;;;;;4961945;29;20047;-93
2023/08/22 09:46:58;;;;;;;6.50;3.85;;;;;;;;;;4943291;29;20044;-93
2023/08/22 09:49:25;;;;;;;5.35;4.80;;;;;;;;;;4946635;29;20031;-93
2023/08/22 09:52:01;;;;;;;5.63;4.43;;;;;;;;;;4936742;29;20035;-92
2023/08/22 09:54:37;;;;;;;4.68;4.22;;;;;;;;;;4956761;29;20032;-94
2023/08/22 09:57:08;;;;;;;5.43;4.93;;;;;;;;;;4923467;29;20046;-94
2023/08/22 09:59:35;;;;;;;8.23;5.60;;;;;;;;;;4960187;28;20032;-93
2023/08/22 10:02:05;;;;;;;5.43;4.68;;;;;;;;;;4952917;28;20040;-91
2023/08/22 10:04:33;;;;;;;5.72;5.22;;;;;;;;;;4957386;29;20040;-92
2023/08/22 10:07:08;;;;;;;6.60;5.13;;;;;;;;;;4955676;29;20051;-93
2023/08/22 10:09:44;;;;;;;6.13;4.43;;;;;;;;;;4955436;29;20054;-92
2023/08/22 10:12:14;;;;;;;5.25;4.75;;;;;;;;;;4944078;29;20043;-93
2023/08/22 10:14:46;;;;;;;6.60;3.67;;;;;;;;;;4918707;29;20043;-93
2023/08/22 10:17:14;;;;;;;5.63;4.10;;;;;;;;;;4953128;29;20028;-93
2023/08/22 10:19:59;;;;;;;8.27;4.30;;;;;;;;;;4943324;29;20054;-92
2023/08/22 10:22:43;;;;;;;4.45;4.13;;;;;;;;;;4953882;29;20032;-92
2023/08/22 10:25:58;;;;;;;5.00;3.38;;;;;;;;;;4953981;28;20027;-92
2023/08/22 10:28:28;;;;;;;8.40;3.80;;;;;;;;;;4955961;28;20049;-93
2023/08/22 10:31:02;;;;;;;3.95;3.55;;;;;;;;;;4961203;29;20035;-93
2023/08/22 10:33:29;;;;;;;3.90;3.60;;;;;;;;;;4957818;29;20032;-92
2023/08/22 10:36:04;;;;;;;4.60;3.30;;;;;;;;;;4944823;29;20046;-92
2023/08/22 10:38:53;;;;;;;4.07;3.67;;;;;;;;;;4959937;29;20030;-92
2023/08/22 10:41:22;;;;;;;5.63;3.65;;;;;;;;;;4938521;29;20039;-94
2023/08/22 10:43:50;;;;;;;7.43;3.90;;;;;;;;;;4946811;29;20047;-93
2023/08/22 10:46:17;;;;;;;3.53;3.20;;;;;;;;;;4947260;28;20027;-93
2023/08/22 10:48:54;;;;;;;4.63;3.17;;;;;;;;;;4955779;28;20043;-94
2023/08/22 10:52:00;;;;;;;4.22;3.83;;;;;;;;;;4957073;29;20058;-93
2023/08/22 10:54:31;;;;;;;4.00;2.50;;;;;;;;;;4951433;29;20034;-92
2023/08/22 10:57:17;;;;;;;4.38;2.92;;;;;;;;;;4940397;29;20047;-92
2023/08/22 10:59:56;;;;;;;4.57;3.08;;;;;;;;;;4941314;29;20050;-91
2023/08/22 11:02:25;;;;;;;5.28;2.80;;;;;;;;;;4941669;29;20035;-92
2023/08/22 11:04:53;;;;;;;3.42;3.00;;;;;;;;;;4943972;29;20042;-92
2023/08/22 11:07:20;;;;;;;2.97;2.45;;;;;;;;;;4950393;29;20032;-92
2023/08/22 11:09:50;;;;;;;4.28;2.53;;;;;;;;;;4949924;29;20046;-94
2023/08/22 11:12:19;;;;;;;3.20;2.90;;;;;;;;;;4935446;29;20027;-92
2023/08/22 11:14:46;;;;;;;3.70;2.60;;;;;;;;;;4948337;29;20050;-93
2023/08/22 11:17:14;;;;;;;2.50;2.30;;;;;;;;;;4960085;29;20024;-93
2023/08/22 11:19:42;;;;;;;4.57;3.33;;;;;;;;;;4956690;29;20050;-92
2023/08/22 11:22:10;;;;;;;4.60;2.75;;;;;;;;;;4955655;29;20032;-92
2023/08/22 11:24:38;;;;;;;5.22;2.35;;;;;;;;;;4953050;29;20052;-92
2023/08/22 11:27:13;;;;;;;2.85;2.25;;;;;;;;;;4958187;29;20057;-93
2023/08/22 11:29:42;;;;;;;5.65;2.33;;;;;;;;;;4946473;29;20040;-93
2023/08/22 11:32:20;;;;;;;2.75;2.13;;;;;;;;;;4933688;29;20034;-93
2023/08/22 11:34:49;;;;;;;3.22;2.25;;;;;;;;;;4945891;29;20040;-93
2023/08/22 11:37:16;;;;;;;2.92;2.30;;;;;;;;;;4948713;29;20113;-93
2023/08/22 11:39:46;;;;;;;5.13;2.45;;;;;;;;;;4957841;29;20042;-92
2023/08/22 11:42:16;;;;;;;3.25;2.63;;;;;;;;;;4942439;29;20038;-93
2023/08/22 11:44:54;;;;;;;4.25;2.13;;;;;;;;;;4940379;29;20275;-92
2023/08/22 11:47:36;;;;;;;2.65;1.92;;;;;;;;;;4950724;28;20047;-93
2023/08/22 11:50:06;;;;;;;6.05;2.42;;;;;;;;;;4942984;29;20036;-93
2023/08/22 11:52:35;;;;;;;3.22;2.30;;;;;;;;;;4957197;29;20046;-92
2023/08/22 11:55:04;;;;;;;3.90;2.17;;;;;;;;;;4929760;29;20146;-92
2023/08/22 11:57:35;;;;;;;2.30;2.00;;;;;;;;;;4956386;29;20040;-93
2023/08/22 12:00:07;;;;;;;4.88;2.45;;;;;;;;;;4955902;29;20040;-93
2023/08/22 12:02:43;;;;;;;4.45;2.10;;;;;;;;;;4947329;29;20032;-93
2023/08/22 12:05:29;;;;;;;4.68;2.30;;;;;;;;;;4949620;29;20040;-93
2023/08/22 12:07:57;;;;;;;9.05;2.90;;;;;;;;;;4954665;29;20032;-93
2023/08/22 12:10:24;;;;;;;2.35;2.10;;;;;;;;;;4954248;29;20032;-92
2023/08/22 12:12:53;;;;;;;3.28;2.00;;;;;;;;;;4940760;29;20058;-93
2023/08/22 12:15:21;;;;;;;3.05;2.75;;;;;;;;;;4955663;28;20035;-92
2023/08/22 12:17:48;;;;;;;3.00;2.50;;;;;;;;;;4939392;29;20036;-93
2023/08/22 12:20:16;;;;;;;3.97;2.33;;;;;;;;;;4956657;28;20035;-94
2023/08/22 12:22:48;;;;;;;4.47;1.95;;;;;;;;;;4950843;29;20025;-92
2023/08/22 12:25:19;;;;;;;3.17;2.75;;;;;;;;;;4953149;29;20034;-93
2023/08/22 12:27:47;;;;;;;3.20;2.15;;;;;;;;;;4941877;29;20038;-93
2023/08/22 12:30:16;;;;;;;8.70;2.67;;;;;;;;;;4945943;29;20040;-93
2023/08/22 12:32:44;;;;;;;3.95;2.08;;;;;;;;;;4950409;29;20046;-93
2023/08/22 12:35:12;;;;;;;3.70;1.95;;;;;;;;;;4952382;29;20046;-92
2023/08/22 12:37:40;;;;;;;3.15;1.90;;;;;;;;;;4938896;29;20028;-93
2023/08/22 12:40:10;;;;;;;4.43;2.08;;;;;;;;;;4958864;29;20042;-93
2023/08/22 12:42:41;;;;;;;4.95;2.30;;;;;;;;;;4944832;29;20035;-92
2023/08/22 12:45:09;;;;;;;6.15;2.22;;;;;;;;;;4947555;29;20278;-93
2023/08/22 12:47:42;;;;;;;3.45;1.95;;;;;;;;;;4956259;29;20036;-93
2023/08/22 12:50:10;;;;;;;3.30;2.25;;;;;;;;;;4952066;29;20045;-94
2023/08/22 12:52:39;;;;;;;8.13;3.30;;;;;;;;;;4957005;28;20040;-93
2023/08/22 12:55:08;;;;;;;3.15;2.03;;;;;;;;;;4956872;29;20050;-93
2023/08/22 12:57:37;;;;;;;3.10;2.47;;;;;;;;;;4941592;29;20046;-93
2023/08/22 13:00:08;;;;;;;4.25;2.33;;;;;;;;;;4958695;29;20066;-93
2023/08/22 13:02:36;;;;;;;3.10;2.45;;;;;;;;;;4941896;28;20032;-93
2023/08/22 13:05:06;;;;;;;7.85;4.28;;;;;;;;;;4958190;29;20048;-93
2023/08/22 13:07:34;;;;;;;2.45;1.98;;;;;;;;;;4941967;29;20035;-92
2023/08/22 13:10:04;;;;;;;3.08;2.53;;;;;;;;;;4942158;29;20035;-92
2023/08/22 13:12:34;;;;;;;1.90;1.50;;;;;;;;;;4956126;29;20066;-93
2023/08/22 13:15:06;;;;;;;2.05;1.90;;;;;;;;;;4948216;29;20036;-94
2023/08/22 13:17:33;;;;;;;4.55;2.13;;;;;;;;;;4944086;29;20024;-92
2023/08/22 13:20:00;;;;;;;3.00;2.35;;;;;;;;;;4962597;29;20032;-94
2023/08/22 13:22:29;;;;;;;4.22;1.92;;;;;;;;;;4962221;29;20042;-93
2023/08/22 13:24:57;;;;;;;6.00;2.13;;;;;;;;;;4942794;29;20038;-94
2023/08/22 13:27:27;;;;;;;2.42;1.92;;;;;;;;;;4961678;29;20038;-93
2023/08/22 13:29:54;;;;;;;3.15;2.15;;;;;;;;;;4956976;29;20036;-92
2023/08/22 13:32:22;;;;;;;2.22;2.03;;;;;;;;;;4950250;29;20034;-93
2023/08/22 13:34:53;;;;;;;5.88;3.78;;;;;;;;;;4964901;28;20040;-93
2023/08/22 13:37:20;;;;;;;2.75;2.05;;;;;;;;;;4938519;29;20028;-93
2023/08/22 13:39:49;;;;;;;4.45;2.47;;;;;;;;;;4959574;29;20056;-93
2023/08/22 13:42:22;;;;;;;3.88;2.20;;;;;;;;;;4961499;29;20047;-93
2023/08/22 13:44:50;;;;;;;1.83;1.42;;;;;;;;;;4961558;29;20122;-93
2023/08/22 13:47:17;;;;;;;3.25;1.73;;;;;;;;;;4961759;28;20027;-92
2023/08/22 13:49:45;;;;;;;3.70;1.80;;;;;;;;;;4953492;28;20044;-93
2023/08/22 13:52:13;;;;;;;3.25;2.00;;;;;;;;;;4958635;29;20109;-93
2023/08/22 13:54:41;;;;;;;5.82;1.92;;;;;;;;;;4958980;29;20040;-93
2023/08/22 13:57:14;;;;;;;;;;;;;;;;;;4945486;29;20050;-93
2023/08/22 13:59:43;;;;;;;3.35;1.92;;;;;;;;;;4956835;29;19911;-93
2023/08/22 14:02:13;;;;;;;2.88;2.00;;;;;;;;;;4959888;29;20124;-93
2023/08/22 14:04:42;;;;;;;2.53;1.77;;;;;;;;;;4943625;29;20027;-92
2023/08/22 14:07:10;;;;;;;3.20;2.05;;;;;;;;;;4941657;29;20042;-92
2023/08/22 14:09:38;;;;;;;4.07;1.60;;;;;;;;;;4940502;29;20063;-92
2023/08/22 14:12:06;;;;;;;5.25;2.42;;;;;;;;;;4953742;29;20036;-92
2023/08/22 14:14:35;;;;;;;2.25;1.80;;;;;;;;;;4960592;29;20101;-92
2023/08/22 14:17:02;;;;;;;2.00;1.73;;;;;;;;;;4959710;29;20104;-92
2023/08/22 14:19:30;;;;;;;2.88;1.80;;;;;;;;;;4958712;29;20050;-92
2023/08/22 14:21:59;;;;;;;3.03;2.03;;;;;;;;;;4960454;29;20028;-92
2023/08/22 14:24:27;;;;;;;3.95;1.60;;;;;;;;;;4959336;28;20047;-92
2023/08/22 14:26:54;;;;;;;4.25;1.63;;;;;;;;;;4939990;29;20028;-92
2023/08/22 14:29:24;;;;;;;2.53;1.70;;;;;;;;;;4948512;29;20050;-92
2023/08/22 14:31:53;;;;;;;5.03;2.08;;;;;;;;;;4959286;28;20032;-92
2023/08/22 14:34:21;;;;;;;2.47;1.73;;;;;;;;;;4961131;29;20046;-92
2023/08/22 14:36:48;;;;;;;2.13;1.88;;;;;;;;;;4942412;29;20041;-92
2023/08/22 14:39:17;;;;;;;3.53;2.17;;;;;;;;;;4944275;29;20045;-93
2023/08/22 14:41:45;;;;;;;2.42;2.05;;;;;;;;;;4958858;29;20031;-93
2023/08/22 14:44:12;;;;;;;4.50;2.03;;;;;;;;;;4960354;28;20032;-92
2023/08/22 14:46:42;;;;;;;2.95;1.75;;;;;;;;;;4959551;29;20038;-92
2023/08/22 14:49:14;;;;;;;1.92;1.80;;;;;;;;;;4959590;29;20035;-92
2023/08/22 14:51:41;;;;;;;3.35;1.88;;;;;;;;;;4944358;28;20035;-93
2023/08/22 14:54:10;;;;;;;2.63;1.90;;;;;;;;;;4956297;28;20042;-94
2023/08/22 14:56:37;;;;;;;4.20;1.60;;;;;;;;;;4952671;29;20058;-92
2023/08/22 14:59:04;;;;;;;2.30;2.08;;;;;;;;;;4959448;29;20046;-92